Time;durP1;ratioP1;P1;durP2;ratioP2;P2;SDS_P1;SDS_P2;PMS_P1;PMS_P2;Temp;Humidity;BMP_temperature;BMP_pressure;BME280_temperature;BME280_humidity;BME280_pressure;Samples;Min_cycle;Max_cycle;Signal;HPM_P1;HPM_P2
2023/07/19 00:00:36;;;;;;;3.10;2.28;;;17.70;96.50;;;;;;5010423;28;20033;-45
2023/07/19 00:03:02;;;;;;;6.82;2.17;;;17.70;97.10;;;;;;5010095;28;20030;-45
2023/07/19 00:05:28;;;;;;;5.10;2.28;;;17.60;96.70;;;;;;5010471;28;20101;-45
2023/07/19 00:07:54;;;;;;;2.53;1.90;;;17.60;96.90;;;;;;5002250;28;20239;-45
2023/07/19 00:10:19;;;;;;;6.10;2.38;;;17.60;96.90;;;;;;5009294;28;20294;-45
2023/07/19 00:12:45;;;;;;;6.25;2.40;;;17.50;96.70;;;;;;5009793;28;20022;-47
2023/07/19 00:15:11;;;;;;;4.55;2.40;;;17.50;97.30;;;;;;5010340;28;20029;-46
2023/07/19 00:17:36;;;;;;;5.32;2.28;;;17.40;99.00;;;;;;5009836;28;20026;-45
2023/07/19 00:20:02;;;;;;;5.97;2.00;;;17.40;98.00;;;;;;5009895;28;20053;-47
2023/07/19 00:22:28;;;;;;;5.60;2.13;;;17.40;97.70;;;;;;5024722;28;20026;-46
2023/07/19 00:24:54;;;;;;;6.28;2.42;;;17.40;98.30;;;;;;5009968;28;20040;-45
2023/07/19 00:27:19;;;;;;;2.53;2.05;;;17.40;98.20;;;;;;5009810;28;20414;-46
2023/07/19 00:29:44;;;;;;;5.45;2.13;;;17.30;99.30;;;;;;5009856;28;20034;-46
2023/07/19 00:32:10;;;;;;;5.03;2.15;;;17.30;99.40;;;;;;5009356;28;20045;-46
2023/07/19 00:34:36;;;;;;;6.15;2.72;;;17.30;98.10;;;;;;5009528;28;20032;-48
2023/07/19 00:37:01;;;;;;;5.53;2.25;;;17.30;98.20;;;;;;5009923;28;20200;-46
2023/07/19 00:39:27;;;;;;;3.22;2.00;;;17.40;97.90;;;;;;5009686;28;20241;-46
2023/07/19 00:41:53;;;;;;;5.95;2.40;;;17.40;98.00;;;;;;5009388;28;20502;-45
2023/07/19 00:44:18;;;;;;;5.70;1.90;;;17.40;98.20;;;;;;5009729;28;20029;-45
2023/07/19 00:46:45;;;;;;;4.32;1.73;;;17.40;98.30;;;;;;5009477;28;20416;-45
2023/07/19 00:49:10;;;;;;;4.35;1.98;;;17.40;98.20;;;;;;5009522;28;20379;-46
2023/07/19 00:51:37;;;;;;;4.55;2.00;;;17.40;98.30;;;;;;5008979;28;20018;-46
2023/07/19 00:54:04;;;;;;;8.18;2.10;;;17.40;98.50;;;;;;5024558;28;20480;-45
2023/07/19 00:56:30;;;;;;;3.05;1.92;;;17.40;98.80;;;;;;5009432;28;20025;-47
2023/07/19 00:58:57;;;;;;;2.38;1.67;;;17.40;98.40;;;;;;5009527;28;20037;-46
2023/07/19 01:01:23;;;;;;;4.10;1.88;;;17.40;98.80;;;;;;5009174;28;20018;-46
2023/07/19 01:03:49;;;;;;;4.93;2.20;;;17.40;98.50;;;;;;5009020;28;20030;-49
2023/07/19 01:06:15;;;;;;;5.70;2.20;;;17.40;98.20;;;;;;5024146;28;20083;-47
2023/07/19 01:08:40;;;;;;;2.25;1.88;;;17.40;98.70;;;;;;5009276;28;20029;-45
2023/07/19 01:11:06;;;;;;;6.68;2.33;;;17.40;98.80;;;;;;5008737;28;20492;-48
2023/07/19 01:13:31;;;;;;;4.43;2.30;;;17.40;98.70;;;;;;5008652;28;20390;-46
2023/07/19 01:15:57;;;;;;;4.13;2.20;;;17.40;99.30;;;;;;5009391;28;20014;-46
2023/07/19 01:18:22;;;;;;;3.97;2.08;;;17.30;99.90;;;;;;5009017;28;20022;-47
2023/07/19 01:20:48;;;;;;;2.55;1.98;;;17.30;99.90;;;;;;5008669;28;20026;-47
2023/07/19 01:23:13;;;;;;;3.00;1.77;;;17.30;98.90;;;;;;5008555;28;20088;-46
2023/07/19 01:25:39;;;;;;;2.40;1.70;;;17.30;99.20;;;;;;5008778;28;20399;-45
2023/07/19 01:28:06;;;;;;;4.05;2.25;;;17.20;98.80;;;;;;5007339;28;20100;-46
2023/07/19 01:30:31;;;;;;;2.92;2.10;;;17.30;98.90;;;;;;5008553;28;20026;-47
2023/07/19 01:32:57;;;;;;;2.58;1.73;;;17.30;99.00;;;;;;5008427;28;20052;-46
2023/07/19 01:35:22;;;;;;;3.35;2.17;;;17.30;99.10;;;;;;5008780;28;20021;-46
2023/07/19 01:37:48;;;;;;;6.03;2.10;;;17.20;98.50;;;;;;5009032;28;20025;-45
2023/07/19 01:40:14;;;;;;;3.67;1.98;;;17.20;98.40;;;;;;5007313;28;20030;-46
2023/07/19 01:42:40;;;;;;;4.13;2.10;;;17.20;99.30;;;;;;5008353;28;20029;-45
2023/07/19 01:45:06;;;;;;;3.03;2.33;;;17.10;99.70;;;;;;5005857;28;20034;-47
2023/07/19 01:47:32;;;;;;;3.63;2.28;;;17.10;99.90;;;;;;5006948;28;20141;-45
2023/07/19 01:49:57;;;;;;;2.22;2.03;;;17.10;99.60;;;;;;5008126;28;20774;-45
2023/07/19 01:52:23;;;;;;;2.45;1.60;;;17.00;99.90;;;;;;5008120;28;20505;-47
2023/07/19 01:54:48;;;;;;;3.28;1.95;;;16.90;99.90;;;;;;5010304;28;20032;-46
2023/07/19 01:57:15;;;;;;;6.07;2.55;;;16.90;99.90;;;;;;5023201;28;20030;-48
2023/07/19 01:59:40;;;;;;;4.10;2.20;;;16.80;99.90;;;;;;5008469;28;20026;-45
2023/07/19 02:02:06;;;;;;;3.35;2.38;;;16.80;99.90;;;;;;5007535;28;20491;-45
2023/07/19 02:04:31;;;;;;;4.72;2.30;;;16.80;99.90;;;;;;5008090;28;20030;-49
2023/07/19 02:06:57;;;;;;;3.22;1.92;;;16.80;99.90;;;;;;5022874;28;20033;-45
2023/07/19 02:09:22;;;;;;;4.50;1.98;;;16.80;99.90;;;;;;5008027;28;20040;-45
2023/07/19 02:11:48;;;;;;;2.05;1.65;;;16.70;99.90;;;;;;5007562;28;20100;-45
2023/07/19 02:14:13;;;;;;;3.80;2.00;;;16.50;99.90;;;;;;5009773;28;20119;-46
2023/07/19 02:16:39;;;;;;;3.50;1.90;;;16.50;99.90;;;;;;5010299;28;20022;-48
2023/07/19 02:19:06;;;;;;;2.00;1.75;;;16.50;99.90;;;;;;5010156;28;20014;-45
2023/07/19 02:21:32;;;;;;;3.83;2.15;;;16.50;99.90;;;;;;5024860;28;20029;-45
2023/07/19 02:23:57;;;;;;;4.13;2.53;;;16.40;99.90;;;;;;5009072;28;20022;-46
2023/07/19 02:26:23;;;;;;;6.55;2.38;;;16.50;99.90;;;;;;5009914;28;20080;-45
2023/07/19 02:28:49;;;;;;;3.97;1.98;;;16.40;99.90;;;;;;5010396;28;20044;-46
2023/07/19 02:31:15;;;;;;;2.80;1.85;;;16.30;99.90;;;;;;5009586;28;20515;-46
2023/07/19 02:33:40;;;;;;;3.70;2.50;;;16.30;99.90;;;;;;5009750;28;20093;-46
2023/07/19 02:36:06;;;;;;;2.38;2.10;;;16.20;99.90;;;;;;5009838;28;20036;-45
2023/07/19 02:38:31;;;;;;;4.57;2.72;;;16.20;99.90;;;;;;5009967;28;20048;-48
2023/07/19 02:41:01;;;;;;;3.78;1.98;;;16.20;99.90;;;;;;5009794;28;20025;-48
2023/07/19 02:43:27;;;;;;;4.85;2.00;;;16.10;99.90;;;;;;5015470;28;20030;-48
2023/07/19 02:45:53;;;;;;;3.20;2.22;;;16.10;99.90;;;;;;5004227;28;20026;-45
2023/07/19 02:48:19;;;;;;;2.95;2.28;;;16.00;99.90;;;;;;5008910;28;20036;-45
2023/07/19 02:50:46;;;;;;;2.72;2.03;;;16.00;99.90;;;;;;5009725;28;20087;-45
2023/07/19 02:53:12;;;;;;;2.97;2.42;;;16.00;99.90;;;;;;5009510;28;20277;-45
2023/07/19 02:55:38;;;;;;;5.32;2.53;;;16.00;99.90;;;;;;5024688;28;20475;-48
2023/07/19 02:58:03;;;;;;;5.40;2.13;;;16.00;99.90;;;;;;5005704;28;20393;-47
2023/07/19 03:00:29;;;;;;;3.40;2.05;;;16.00;99.90;;;;;;5024868;28;20029;-47
2023/07/19 03:02:55;;;;;;;4.47;2.53;;;16.10;99.90;;;;;;5008074;28;20423;-46
2023/07/19 03:05:21;;;;;;;4.38;2.00;;;16.00;99.90;;;;;;5009574;28;20455;-45
2023/07/19 03:07:47;;;;;;;4.55;2.08;;;16.00;99.90;;;;;;5006845;28;20034;-46
2023/07/19 03:10:12;;;;;;;3.35;2.15;;;16.00;99.90;;;;;;5000919;28;20325;-48
2023/07/19 03:12:37;;;;;;;3.08;1.95;;;15.90;99.90;;;;;;5013284;28;20026;-46
2023/07/19 03:15:03;;;;;;;3.25;2.53;;;15.80;99.90;;;;;;5012459;28;20105;-46
2023/07/19 03:17:29;;;;;;;4.38;2.53;;;15.80;99.90;;;;;;5004242;28;20035;-46
2023/07/19 03:19:54;;;;;;;4.18;2.38;;;15.70;99.90;;;;;;5005364;28;20076;-46
2023/07/19 03:22:20;;;;;;;3.63;2.38;;;15.70;99.90;;;;;;5009410;28;20022;-45
2023/07/19 03:24:45;;;;;;;3.70;2.42;;;15.70;99.90;;;;;;5009834;28;20565;-46
2023/07/19 03:27:11;;;;;;;5.45;2.42;;;15.60;99.90;;;;;;5009335;28;20038;-45
2023/07/19 03:29:36;;;;;;;3.17;2.10;;;15.70;99.90;;;;;;5009283;28;20031;-48
2023/07/19 03:32:02;;;;;;;5.97;2.25;;;15.70;99.90;;;;;;5008893;28;20307;-46
2023/07/19 03:34:28;;;;;;;3.88;2.53;;;15.80;99.90;;;;;;5009204;28;20510;-45
2023/07/19 03:36:53;;;;;;;4.28;2.45;;;15.90;99.90;;;;;;5012616;28;20022;-45
2023/07/19 03:39:19;;;;;;;3.55;2.50;;;15.90;99.90;;;;;;5013126;28;20434;-46
2023/07/19 03:41:44;;;;;;;3.22;2.28;;;15.90;99.90;;;;;;5012669;28;20029;-46
2023/07/19 03:44:10;;;;;;;6.50;2.50;;;16.00;99.90;;;;;;5013086;28;20036;-46
2023/07/19 03:46:35;;;;;;;7.53;2.78;;;15.90;99.90;;;;;;5012768;28;20025;-45
2023/07/19 03:49:01;;;;;;;4.18;1.92;;;16.00;99.90;;;;;;5012877;28;20041;-47
2023/07/19 03:51:26;;;;;;;3.05;2.53;;;16.00;99.90;;;;;;5027862;28;20390;-45
2023/07/19 03:53:52;;;;;;;4.55;2.60;;;16.00;99.90;;;;;;5012754;28;20387;-45
2023/07/19 03:56:18;;;;;;;6.90;3.13;;;16.00;99.90;;;;;;5012782;28;20033;-46
2023/07/19 03:58:48;;;;;;;3.75;2.67;;;16.00;99.90;;;;;;5012692;28;20386;-45
2023/07/19 04:01:14;;;;;;;5.38;2.80;;;16.00;99.90;;;;;;5002975;28;20041;-45
2023/07/19 04:03:41;;;;;;;3.60;2.92;;;16.00;99.90;;;;;;5002492;28;20029;-45
2023/07/19 04:06:07;;;;;;;3.70;2.40;;;16.00;99.90;;;;;;5007517;28;20042;-45
2023/07/19 04:08:34;;;;;;;6.78;2.55;;;16.00;99.90;;;;;;5012756;28;20044;-45
2023/07/19 04:10:59;;;;;;;6.38;2.75;;;16.00;99.90;;;;;;5006875;28;20030;-47
2023/07/19 04:13:26;;;;;;;6.07;2.90;;;16.10;99.90;;;;;;5008543;28;20018;-47
2023/07/19 04:15:52;;;;;;;3.72;2.50;;;16.10;99.90;;;;;;5012196;28;20037;-48
2023/07/19 04:18:17;;;;;;;4.28;2.50;;;16.20;99.90;;;;;;5027244;28;20068;-46
2023/07/19 04:20:43;;;;;;;3.45;2.33;;;16.20;99.90;;;;;;5027560;28;20030;-47
2023/07/19 04:23:09;;;;;;;10.18;2.50;;;16.20;99.90;;;;;;5011972;28;20495;-46
2023/07/19 04:25:34;;;;;;;3.63;2.55;;;16.20;99.90;;;;;;5012207;28;20392;-48
2023/07/19 04:28:00;;;;;;;4.55;2.60;;;16.30;99.90;;;;;;5012678;28;20442;-46
2023/07/19 04:30:25;;;;;;;5.93;2.60;;;16.40;99.90;;;;;;5026968;28;20022;-45
2023/07/19 04:32:54;;;;;;;6.63;2.67;;;16.30;99.90;;;;;;5011613;28;20026;-45
2023/07/19 04:35:23;;;;;;;5.88;2.75;;;16.40;99.90;;;;;;5026861;28;20029;-45
2023/07/19 04:37:49;;;;;;;4.70;2.95;;;16.40;99.90;;;;;;5011559;28;20046;-45
2023/07/19 04:40:16;;;;;;;3.53;2.70;;;16.50;99.90;;;;;;5011562;28;20022;-47
2023/07/19 04:42:41;;;;;;;2.88;2.22;;;16.60;99.90;;;;;;5010279;28;20104;-45
2023/07/19 04:45:08;;;;;;;2.90;2.35;;;16.60;99.90;;;;;;5011574;28;20049;-45
2023/07/19 04:47:33;;;;;;;3.65;2.78;;;16.70;99.90;;;;;;5010812;28;20029;-45
2023/07/19 04:49:59;;;;;;;3.45;2.53;;;16.70;99.90;;;;;;5010181;28;20026;-47
2023/07/19 04:52:25;;;;;;;3.83;2.83;;;16.80;99.90;;;;;;5011241;28;20383;-45
2023/07/19 04:54:50;;;;;;;4.50;2.58;;;16.80;99.90;;;;;;5011556;28;20021;-45
2023/07/19 04:57:16;;;;;;;3.42;2.30;;;16.80;99.90;;;;;;5007206;28;20058;-46
2023/07/19 04:59:42;;;;;;;4.75;2.25;;;16.90;99.90;;;;;;4997161;28;20534;-49
2023/07/19 05:02:07;;;;;;;5.57;2.80;;;16.90;99.90;;;;;;5010831;28;20087;-46
2023/07/19 05:04:33;;;;;;;4.25;2.63;;;17.00;99.90;;;;;;5011659;28;20017;-46
2023/07/19 05:06:59;;;;;;;3.60;2.42;;;17.10;99.90;;;;;;5011238;28;20410;-47
2023/07/19 05:09:24;;;;;;;3.85;2.80;;;17.10;99.90;;;;;;5011954;28;20105;-45
2023/07/19 05:11:50;;;;;;;4.53;2.65;;;17.20;99.90;;;;;;5011082;28;20466;-46
2023/07/19 05:14:16;;;;;;;3.90;2.45;;;17.30;99.90;;;;;;5011318;28;20113;-45
2023/07/19 05:16:41;;;;;;;3.88;2.78;;;17.30;99.90;;;;;;5011662;28;20046;-46
2023/07/19 05:19:07;;;;;;;3.30;2.50;;;17.40;99.90;;;;;;5011247;28;20065;-45
2023/07/19 05:21:32;;;;;;;5.68;2.78;;;17.40;99.90;;;;;;5010994;28;20033;-46
2023/07/19 05:23:58;;;;;;;6.95;4.20;;;17.50;99.90;;;;;;5011242;28;20029;-46
2023/07/19 05:26:26;;;;;;;4.97;3.40;;;17.60;99.90;;;;;;5011429;28;20129;-45
2023/07/19 05:28:51;;;;;;;4.72;3.03;;;17.60;99.90;;;;;;5010771;28;20460;-46
2023/07/19 05:31:18;;;;;;;4.78;3.13;;;17.70;99.90;;;;;;5011017;28;20022;-45
2023/07/19 05:33:43;;;;;;;5.85;3.05;;;17.80;99.90;;;;;;5010836;28;20022;-45
2023/07/19 05:36:09;;;;;;;4.55;2.75;;;17.80;99.90;;;;;;5010725;28;20361;-45
2023/07/19 05:38:35;;;;;;;6.90;3.25;;;17.90;99.90;;;;;;5011096;28;20041;-45
2023/07/19 05:41:02;;;;;;;6.43;3.25;;;18.00;99.90;;;;;;5010759;28;20068;-46
2023/07/19 05:43:28;;;;;;;4.68;3.05;;;18.10;99.90;;;;;;4994822;28;20280;-46
2023/07/19 05:46:00;;;;;;;6.47;2.78;;;18.20;99.90;;;;;;5010978;28;20018;-46
2023/07/19 05:48:26;;;;;;;4.18;2.50;;;18.30;99.90;;;;;;5017906;28;20021;-45
2023/07/19 05:50:52;;;;;;;6.95;2.78;;;18.30;99.90;;;;;;5010883;28;20152;-45
2023/07/19 05:53:17;;;;;;;4.40;2.78;;;18.40;99.90;;;;;;5010637;28;20025;-45
2023/07/19 05:55:43;;;;;;;6.38;2.90;;;18.40;99.90;;;;;;5010906;28;20387;-46
2023/07/19 05:58:08;;;;;;;5.10;2.63;;;18.40;99.90;;;;;;5010338;28;20172;-45
2023/07/19 06:00:34;;;;;;;5.88;3.00;;;18.40;99.90;;;;;;5010337;28;20033;-45
2023/07/19 06:03:00;;;;;;;6.90;2.72;;;18.40;99.90;;;;;;5010356;28;20064;-45
2023/07/19 06:05:26;;;;;;;4.57;2.78;;;18.50;99.90;;;;;;5010449;28;20470;-46
2023/07/19 06:07:52;;;;;;;5.20;2.80;;;18.50;99.90;;;;;;5010389;28;20384;-47
2023/07/19 06:10:18;;;;;;;4.68;2.40;;;18.50;99.90;;;;;;5010159;28;20480;-45
2023/07/19 06:12:44;;;;;;;4.53;2.40;;;18.50;99.90;;;;;;5010087;28;20105;-47
2023/07/19 06:15:10;;;;;;;7.25;2.90;;;18.60;99.90;;;;;;5010267;28;20586;-45
2023/07/19 06:17:36;;;;;;;6.68;3.00;;;18.70;99.90;;;;;;5010167;28;20072;-45
2023/07/19 06:20:04;;;;;;;3.85;2.67;;;18.70;99.90;;;;;;5010181;28;20269;-47
2023/07/19 06:22:30;;;;;;;4.50;2.88;;;18.80;99.90;;;;;;5010159;28;20361;-46
2023/07/19 06:24:57;;;;;;;3.63;2.40;;;18.80;99.90;;;;;;5010078;28;20079;-46
2023/07/19 06:27:22;;;;;;;5.03;2.53;;;18.90;99.90;;;;;;5010193;28;20025;-45
2023/07/19 06:29:48;;;;;;;4.53;2.88;;;19.10;99.90;;;;;;5009813;28;20450;-45
2023/07/19 06:32:13;;;;;;;4.38;2.53;;;19.20;99.90;;;;;;5009546;28;20079;-45
2023/07/19 06:34:39;;;;;;;5.07;2.75;;;19.50;99.90;;;;;;5009880;28;20018;-45
2023/07/19 06:37:04;;;;;;;11.27;2.72;;;19.60;99.90;;;;;;5009838;28;20030;-47
2023/07/19 06:39:30;;;;;;;6.35;2.45;;;19.70;99.70;;;;;;5009879;28;20383;-46
2023/07/19 06:41:55;;;;;;;4.55;2.85;;;19.80;98.80;;;;;;5009691;28;20033;-45
2023/07/19 06:44:21;;;;;;;3.13;2.13;;;19.80;98.40;;;;;;5009986;28;20168;-46
2023/07/19 06:46:46;;;;;;;4.50;2.83;;;19.80;98.10;;;;;;5009831;28;20022;-46
2023/07/19 06:49:12;;;;;;;4.93;2.88;;;19.80;98.00;;;;;;5024696;28;20025;-45
2023/07/19 06:51:38;;;;;;;8.55;2.50;;;19.80;97.90;;;;;;5009316;28;20030;-46
2023/07/19 06:54:03;;;;;;;5.22;3.00;;;19.80;97.80;;;;;;5009448;28;20078;-47
2023/07/19 06:56:29;;;;;;;7.25;2.55;;;19.80;97.70;;;;;;5008638;28;20103;-47
2023/07/19 06:58:54;;;;;;;5.13;2.90;;;19.90;97.50;;;;;;5010132;28;20483;-45
2023/07/19 07:01:20;;;;;;;4.25;2.60;;;19.90;97.10;;;;;;5009722;28;20475;-47
2023/07/19 07:03:45;;;;;;;4.97;2.97;;;19.90;96.90;;;;;;5009718;28;20014;-48
2023/07/19 07:06:11;;;;;;;4.55;2.50;;;19.90;97.40;;;;;;5009871;28;20112;-46
2023/07/19 07:08:36;;;;;;;3.10;2.33;;;20.00;97.70;;;;;;5009703;28;20030;-47
2023/07/19 07:11:02;;;;;;;4.93;2.67;;;20.10;97.90;;;;;;5026568;28;20030;-47
2023/07/19 07:13:28;;;;;;;4.40;2.70;;;20.30;97.90;;;;;;5013817;28;20227;-46
2023/07/19 07:15:53;;;;;;;4.60;2.53;;;20.40;98.00;;;;;;5013891;28;20093;-45
2023/07/19 07:18:19;;;;;;;5.53;3.03;;;20.50;99.10;;;;;;5028515;28;20017;-47
2023/07/19 07:20:45;;;;;;;4.38;2.67;;;20.70;98.30;;;;;;5013603;28;20450;-46
2023/07/19 07:23:10;;;;;;;6.47;2.70;;;20.90;97.90;;;;;;5013255;28;20026;-47
2023/07/19 07:25:37;;;;;;;5.38;2.70;;;21.20;97.20;;;;;;5013364;28;20020;-45
2023/07/19 07:28:03;;;;;;;4.32;2.58;;;21.40;97.10;;;;;;5028472;28;20021;-49
2023/07/19 07:30:28;;;;;;;4.22;2.80;;;21.60;96.70;;;;;;5013603;28;20092;-45
2023/07/19 07:32:54;;;;;;;7.88;3.38;;;21.70;96.40;;;;;;5013007;28;20374;-45
2023/07/19 07:35:19;;;;;;;6.72;3.53;;;21.70;95.50;;;;;;5013271;28;20065;-45
2023/07/19 07:37:45;;;;;;;7.93;3.05;;;21.70;95.60;;;;;;5013086;28;20030;-45
2023/07/19 07:40:11;;;;;;;5.03;2.72;;;21.80;95.00;;;;;;5012854;28;20026;-45
2023/07/19 07:42:37;;;;;;;7.20;2.58;;;21.80;95.50;;;;;;5012764;28;20029;-47
2023/07/19 07:45:05;;;;;;;4.97;3.22;;;21.80;95.00;;;;;;5011815;28;20038;-47
2023/07/19 07:47:31;;;;;;;3.60;2.78;;;21.90;94.80;;;;;;5012689;28;20022;-46
2023/07/19 07:49:56;;;;;;;6.32;2.83;;;21.90;94.80;;;;;;5013174;28;20061;-45
2023/07/19 07:52:22;;;;;;;6.75;3.10;;;21.90;93.60;;;;;;5012782;28;20092;-44
2023/07/19 07:54:49;;;;;;;4.55;2.40;;;22.10;94.10;;;;;;5012577;28;20032;-44
2023/07/19 07:57:14;;;;;;;4.47;2.40;;;22.20;93.40;;;;;;5024253;28;20034;-45
2023/07/19 07:59:42;;;;;;;7.30;2.90;;;22.50;92.60;;;;;;5009560;28;20475;-45
2023/07/19 08:02:07;;;;;;;6.35;3.53;;;22.70;92.50;;;;;;5003624;28;20487;-45
2023/07/19 08:04:34;;;;;;;5.88;2.30;;;22.90;92.00;;;;;;5012844;28;20099;-45
2023/07/19 08:06:59;;;;;;;4.78;2.30;;;23.20;91.70;;;;;;5026460;28;20082;-44
2023/07/19 08:09:25;;;;;;;4.60;2.70;;;23.20;91.20;;;;;;5006005;28;20065;-45
2023/07/19 08:11:50;;;;;;;4.07;3.05;;;23.20;91.40;;;;;;5011128;28;20037;-45
2023/07/19 08:14:16;;;;;;;5.20;3.03;;;23.20;91.30;;;;;;5012947;28;20282;-44
2023/07/19 08:16:41;;;;;;;9.15;2.90;;;23.20;90.70;;;;;;5012478;28;20038;-45
2023/07/19 08:19:07;;;;;;;5.00;2.63;;;23.50;89.50;;;;;;5006031;28;20105;-46
2023/07/19 08:21:33;;;;;;;3.88;2.38;;;23.90;89.20;;;;;;5010407;28;20026;-45
2023/07/19 08:23:59;;;;;;;3.55;2.38;;;24.10;86.10;;;;;;5023401;28;20030;-45
2023/07/19 08:26:24;;;;;;;5.28;2.35;;;24.30;84.90;;;;;;5004011;28;20034;-46
2023/07/19 08:28:50;;;;;;;6.05;2.40;;;24.20;85.10;;;;;;5012556;28;20033;-46
2023/07/19 08:31:16;;;;;;;6.97;2.45;;;24.50;84.00;;;;;;5012330;28;20511;-45
2023/07/19 08:33:42;;;;;;;7.40;2.28;;;24.70;81.70;;;;;;5012298;28;20022;-45
2023/07/19 08:36:08;;;;;;;5.32;2.25;;;24.90;80.30;;;;;;5012203;28;20044;-45
2023/07/19 08:38:33;;;;;;;6.32;2.50;;;24.80;79.30;;;;;;5012143;28;20026;-46
2023/07/19 08:41:01;;;;;;;6.15;2.40;;;25.00;78.90;;;;;;5012443;28;20022;-45
2023/07/19 08:43:27;;;;;;;3.25;1.88;;;25.50;78.80;;;;;;5010512;28;20026;-46
2023/07/19 08:45:54;;;;;;;4.57;1.88;;;26.10;75.30;;;;;;5012413;28;20020;-45
2023/07/19 08:48:20;;;;;;;4.60;2.00;;;26.60;75.70;;;;;;5012117;28;20018;-46
2023/07/19 08:50:58;;;;;;;5.10;1.67;;;26.90;72.90;;;;;;5011944;28;20388;-46
2023/07/19 08:53:27;;;;;;;5.53;2.20;;;27.20;70.50;;;;;;5011963;28;20032;-45
2023/07/19 08:55:53;;;;;;;4.20;2.00;;;27.10;71.70;;;;;;5012000;28;20033;-45
2023/07/19 08:58:19;;;;;;;4.38;2.25;;;27.30;71.80;;;;;;5012193;28;20018;-49
2023/07/19 09:00:49;;;;;;;6.00;2.03;;;27.00;71.10;;;;;;5011857;28;20029;-45
2023/07/19 09:03:18;;;;;;;3.90;2.03;;;27.30;72.10;;;;;;5011470;28;20034;-47
2023/07/19 09:05:45;;;;;;;4.93;2.10;;;28.50;70.30;;;;;;5011535;28;20018;-47
2023/07/19 09:08:12;;;;;;;2.78;2.10;;;29.40;68.60;;;;;;5011520;28;20088;-46
2023/07/19 09:10:38;;;;;;;1.70;1.50;;;30.80;66.40;;;;;;5011312;28;20022;-46
2023/07/19 09:13:06;;;;;;;4.85;2.00;;;32.00;62.20;;;;;;5011445;28;20109;-46
2023/07/19 09:15:38;;;;;;;6.57;4.17;;;32.70;59.10;;;;;;5011809;28;20463;-46
2023/07/19 09:18:05;;;;;;;3.30;1.75;;;33.10;58.00;;;;;;5011580;28;20033;-46
2023/07/19 09:20:34;;;;;;;1.85;1.40;;;33.80;56.00;;;;;;5011401;28;20034;-48
2023/07/19 09:23:04;;;;;;;3.33;1.55;;;34.30;54.40;;;;;;5026557;28;20022;-46
2023/07/19 09:25:30;;;;;;;4.80;1.80;;;34.70;52.20;;;;;;5003561;28;20033;-48
2023/07/19 09:27:55;;;;;;;3.15;1.63;;;35.20;51.20;;;;;;5011392;28;20398;-47
2023/07/19 09:30:21;;;;;;;2.60;1.73;;;35.30;51.40;;;;;;5011307;28;20042;-46
2023/07/19 09:32:58;;;;;;;6.75;1.50;;;35.80;50.30;;;;;;5010291;28;20021;-46
2023/07/19 09:35:27;;;;;;;5.90;1.55;;;35.80;49.60;;;;;;5011216;28;20478;-46
2023/07/19 09:37:53;;;;;;;3.80;1.40;;;36.00;48.30;;;;;;5011251;28;20120;-46
2023/07/19 09:40:19;;;;;;;3.80;1.83;;;36.00;48.30;;;;;;5026210;28;20041;-46
2023/07/19 09:42:45;;;;;;;6.28;1.60;;;36.00;47.80;;;;;;5025736;28;20030;-47
2023/07/19 09:45:11;;;;;;;1.98;1.60;;;36.20;47.10;;;;;;5026036;28;20026;-47
2023/07/19 09:47:39;;;;;;;4.07;1.30;;;36.10;47.40;;;;;;5010795;28;20030;-48
2023/07/19 09:50:06;;;;;;;4.15;1.95;;;35.60;48.00;;;;;;5011108;28;20579;-47
2023/07/19 09:52:36;;;;;;;3.33;1.92;;;35.20;47.10;;;;;;5025993;28;20035;-47
2023/07/19 09:55:03;;;;;;;2.35;1.70;;;35.30;47.50;;;;;;5026088;28;20025;-46
2023/07/19 09:57:31;;;;;;;2.70;1.55;;;35.50;47.00;;;;;;4985124;28;20022;-47
2023/07/19 09:59:57;;;;;;;4.30;1.77;;;35.10;46.80;;;;;;5010806;28;20026;-47
2023/07/19 10:02:23;;;;;;;3.38;1.73;;;35.20;47.70;;;;;;5010405;28;20037;-47
2023/07/19 10:04:50;;;;;;;4.80;1.92;;;35.00;46.90;;;;;;5010818;28;20006;-46
2023/07/19 10:07:25;;;;;;;6.38;1.75;;;35.50;46.70;;;;;;5010694;28;20052;-47
2023/07/19 10:10:03;;;;;;;4.47;1.50;;;35.90;45.30;;;;;;5011002;28;20018;-47
2023/07/19 10:12:31;;;;;;;3.07;1.50;;;35.00;47.70;;;;;;5017857;28;20026;-48
2023/07/19 10:15:03;;;;;;;2.70;1.60;;;34.10;47.90;;;;;;5011019;28;20295;-46
2023/07/19 10:17:37;;;;;;;5.20;1.70;;;34.80;47.90;;;;;;5010559;28;20084;-47
2023/07/19 10:20:12;;;;;;;3.83;1.88;;;35.10;47.70;;;;;;5010395;28;20029;-46
2023/07/19 10:23:00;;;;;;;5.47;1.92;;;35.50;46.30;;;;;;5010267;28;20487;-46
2023/07/19 10:25:45;;;;;;;3.22;2.05;;;34.60;47.30;;;;;;5010429;28;20026;-47
2023/07/19 10:28:12;;;;;;;6.65;1.75;;;33.50;47.70;;;;;;5010396;28;20473;-46
2023/07/19 10:30:45;;;;;;;2.70;1.63;;;32.50;48.20;;;;;;5009099;28;20406;-46
2023/07/19 10:33:24;;;;;;;3.45;1.92;;;33.40;48.70;;;;;;5009815;28;20537;-46
2023/07/19 10:35:52;;;;;;;5.35;1.75;;;34.10;48.80;;;;;;5010312;28;20149;-46
2023/07/19 10:38:26;;;;;;;4.00;1.70;;;34.00;48.50;;;;;;5010082;28;20048;-46
2023/07/19 10:40:57;;;;;;;2.88;1.80;;;33.80;47.80;;;;;;5005161;28;20029;-48
2023/07/19 10:43:28;;;;;;;3.17;1.90;;;33.30;48.20;;;;;;5005656;28;20605;-46
2023/07/19 10:45:55;;;;;;;3.75;1.42;;;33.40;49.00;;;;;;5005798;28;20109;-46
2023/07/19 10:48:25;;;;;;;4.78;2.00;;;33.10;49.50;;;;;;5006143;28;20021;-47
2023/07/19 10:50:54;;;;;;;6.53;1.85;;;32.10;50.00;;;;;;5003441;28;20030;-46
2023/07/19 10:53:20;;;;;;;4.32;2.35;;;31.50;50.50;;;;;;5008735;28;20026;-45
2023/07/19 10:55:45;;;;;;;5.85;2.40;;;32.10;50.80;;;;;;5010167;28;20383;-45
2023/07/19 10:58:12;;;;;;;3.10;1.90;;;31.50;52.30;;;;;;5009795;28;20021;-45
2023/07/19 11:00:38;;;;;;;3.75;1.88;;;31.40;52.50;;;;;;5002352;28;20030;-46
2023/07/19 11:03:05;;;;;;;4.20;1.92;;;30.90;53.10;;;;;;5001031;28;20038;-46
2023/07/19 11:05:30;;;;;;;4.50;1.70;;;31.10;53.20;;;;;;5009016;28;20044;-45
2023/07/19 11:07:56;;;;;;;5.38;1.80;;;31.10;52.70;;;;;;5004503;28;20030;-45
2023/07/19 11:10:21;;;;;;;4.35;2.20;;;30.60;54.10;;;;;;5008420;28;20567;-45
2023/07/19 11:12:47;;;;;;;3.67;1.70;;;30.80;55.00;;;;;;5008666;28;20014;-45
2023/07/19 11:15:13;;;;;;;6.93;2.17;;;30.60;55.50;;;;;;5006652;28;20018;-46
2023/07/19 11:17:39;;;;;;;3.35;1.95;;;30.20;55.70;;;;;;5006009;28;20120;-45
2023/07/19 11:20:07;;;;;;;3.50;1.83;;;29.70;55.50;;;;;;5008843;28;20037;-46
2023/07/19 11:22:33;;;;;;;3.75;2.00;;;29.30;56.50;;;;;;5009379;28;20026;-45
2023/07/19 11:24:59;;;;;;;6.97;2.28;;;28.90;57.80;;;;;;5009583;28;20025;-45
2023/07/19 11:27:34;;;;;;;4.03;1.88;;;29.00;56.90;;;;;;5009712;28;20041;-45
2023/07/19 11:30:00;;;;;;;3.97;1.70;;;28.70;57.70;;;;;;5009642;28;20430;-45
2023/07/19 11:32:25;;;;;;;5.32;2.42;;;28.70;59.10;;;;;;5018538;28;20026;-45
2023/07/19 11:34:56;;;;;;;4.18;2.22;;;28.40;59.50;;;;;;5004737;28;20030;-45
2023/07/19 11:37:25;;;;;;;3.50;1.95;;;28.10;59.70;;;;;;5007156;28;20014;-45
2023/07/19 11:39:52;;;;;;;4.33;2.07;;;27.60;60.40;;;;;;5004410;28;20029;-45
2023/07/19 11:42:47;;;;;;;6.22;2.15;;;27.30;60.60;;;;;;5008072;28;20022;-45
2023/07/19 11:45:14;;;;;;;5.07;2.13;;;26.90;61.60;;;;;;5009492;28;20029;-45
2023/07/19 11:47:41;;;;;;;5.80;1.73;;;27.80;61.30;;;;;;5024642;28;20104;-46
2023/07/19 11:50:08;;;;;;;5.18;2.30;;;28.10;59.50;;;;;;5009320;28;20030;-45
2023/07/19 11:52:47;;;;;;;5.47;2.15;;;28.10;59.30;;;;;;5000966;28;20117;-47
2023/07/19 11:55:13;;;;;;;4.80;2.28;;;28.00;59.90;;;;;;5009256;28;20026;-46
2023/07/19 11:57:41;;;;;;;4.90;1.73;;;27.90;59.10;;;;;;5012223;28;20025;-45
2023/07/19 12:00:07;;;;;;;1.98;1.25;;;28.40;59.90;;;;;;5012647;28;20387;-47
2023/07/19 12:02:34;;;;;;;5.32;1.95;;;28.10;59.40;;;;;;5012387;28;20029;-46
2023/07/19 12:04:59;;;;;;;2.47;1.73;;;27.80;60.30;;;;;;5012826;28;20018;-49
2023/07/19 12:07:25;;;;;;;3.38;2.03;;;27.70;58.80;;;;;;5028245;28;20088;-45
2023/07/19 12:09:51;;;;;;;3.53;1.83;;;27.50;59.50;;;;;;5012983;28;20088;-45
2023/07/19 12:12:17;;;;;;;6.80;1.67;;;27.70;60.10;;;;;;5012938;28;20049;-44
2023/07/19 12:14:42;;;;;;;3.33;1.92;;;27.90;59.60;;;;;;5013084;28;20038;-45
2023/07/19 12:17:07;;;;;;;4.00;2.03;;;27.60;60.50;;;;;;5012909;28;20053;-45
2023/07/19 12:19:33;;;;;;;4.90;1.98;;;28.00;60.90;;;;;;5027941;28;20041;-45
2023/07/19 12:21:59;;;;;;;3.83;2.20;;;28.70;58.80;;;;;;5012663;28;20113;-45
2023/07/19 12:24:25;;;;;;;2.50;1.83;;;28.60;58.70;;;;;;5012579;28;20038;-45
2023/07/19 12:26:50;;;;;;;7.25;2.10;;;28.30;58.30;;;;;;5012546;28;20037;-45
2023/07/19 12:29:16;;;;;;;5.93;3.08;;;28.00;58.40;;;;;;5012539;28;20502;-46
2023/07/19 12:31:41;;;;;;;3.90;2.70;;;27.60;59.50;;;;;;5012399;28;20036;-46
2023/07/19 12:34:07;;;;;;;3.45;1.98;;;27.50;60.20;;;;;;5027640;28;20022;-48
2023/07/19 12:36:32;;;;;;;5.03;1.90;;;27.40;59.30;;;;;;5012501;28;20053;-45
2023/07/19 12:38:58;;;;;;;5.22;1.90;;;27.30;60.50;;;;;;5012543;28;20479;-45
2023/07/19 12:41:23;;;;;;;3.97;1.73;;;27.30;60.80;;;;;;5027174;28;20453;-45
2023/07/19 12:43:49;;;;;;;6.75;2.13;;;27.40;60.30;;;;;;5012026;28;20412;-46